sensor_id;sensor_type;location;lat;lon;timestamp;P1;durP1;ratioP1;P2;durP2;ratioP2
35891;SDS011;21993;42.672;23.296;2022-09-13T00:00:30;8.87;;;4.73;;
35891;SDS011;21993;42.672;23.296;2022-09-13T00:02:56;8.63;;;5.40;;
35891;SDS011;21993;42.672;23.296;2022-09-13T00:05:21;7.30;;;4.27;;
35891;SDS011;21993;42.672;23.296;2022-09-13T00:07:47;4.33;;;3.90;;
35891;SDS011;21993;42.672;23.296;2022-09-13T00:10:12;6.77;;;4.27;;
35891;SDS011;21993;42.672;23.296;2022-09-13T00:12:38;4.83;;;4.33;;
35891;SDS011;21993;42.672;23.296;2022-09-13T00:15:03;5.83;;;3.97;;
35891;SDS011;21993;42.672;23.296;2022-09-13T00:17:29;4.60;;;4.20;;
35891;SDS011;21993;42.672;23.296;2022-09-13T00:19:55;4.53;;;4.13;;
35891;SDS011;21993;42.672;23.296;2022-09-13T00:22:20;5.80;;;4.57;;
35891;SDS011;21993;42.672;23.296;2022-09-13T00:24:46;4.80;;;4.40;;
35891;SDS011;21993;42.672;23.296;2022-09-13T00:27:11;6.23;;;4.50;;
35891;SDS011;21993;42.672;23.296;2022-09-13T00:29:37;4.53;;;4.03;;
35891;SDS011;21993;42.672;23.296;2022-09-13T00:32:03;5.07;;;4.27;;
35891;SDS011;21993;42.672;23.296;2022-09-13T00:34:29;5.13;;;4.50;;
35891;SDS011;21993;42.672;23.296;2022-09-13T00:36:54;5.97;;;4.20;;
35891;SDS011;21993;42.672;23.296;2022-09-13T00:39:20;6.13;;;4.03;;
35891;SDS011;21993;42.672;23.296;2022-09-13T00:41:45;13.20;;;4.50;;
35891;SDS011;21993;42.672;23.296;2022-09-13T00:47:14;5.60;;;3.80;;
35891;SDS011;21993;42.672;23.296;2022-09-13T00:49:47;7.83;;;4.47;;
35891;SDS011;21993;42.672;23.296;2022-09-13T00:52:17;5.13;;;4.10;;
35891;SDS011;21993;42.672;23.296;2022-09-13T00:54:59;5.90;;;4.17;;
35891;SDS011;21993;42.672;23.296;2022-09-13T00:57:29;4.63;;;3.90;;
35891;SDS011;21993;42.672;23.296;2022-09-13T01:02:52;7.07;;;4.43;;
35891;SDS011;21993;42.672;23.296;2022-09-13T01:05:22;6.03;;;4.20;;
35891;SDS011;21993;42.672;23.296;2022-09-13T01:07:52;5.33;;;4.57;;
35891;SDS011;21993;42.672;23.296;2022-09-13T01:10:19;4.80;;;4.23;;
35891;SDS011;21993;42.672;23.296;2022-09-13T01:13:00;4.50;;;4.10;;
35891;SDS011;21993;42.672;23.296;2022-09-13T01:15:37;7.37;;;4.43;;
35891;SDS011;21993;42.672;23.296;2022-09-13T01:18:03;5.00;;;4.20;;
35891;SDS011;21993;42.672;23.296;2022-09-13T01:20:57;6.83;;;4.20;;
35891;SDS011;21993;42.672;23.296;2022-09-13T01:23:38;5.70;;;3.70;;
35891;SDS011;21993;42.672;23.296;2022-09-13T01:34:27;7.07;;;4.53;;
35891;SDS011;21993;42.672;23.296;2022-09-13T01:48:04;6.87;;;4.20;;
35891;SDS011;21993;42.672;23.296;2022-09-13T01:50:51;6.03;;;4.20;;
35891;SDS011;21993;42.672;23.296;2022-09-13T01:53:29;7.83;;;4.23;;
35891;SDS011;21993;42.672;23.296;2022-09-13T01:56:06;4.63;;;4.20;;
35891;SDS011;21993;42.672;23.296;2022-09-13T01:58:57;4.43;;;3.80;;
35891;SDS011;21993;42.672;23.296;2022-09-13T02:01:41;4.87;;;4.20;;
35891;SDS011;21993;42.672;23.296;2022-09-13T02:04:26;4.73;;;4.33;;
35891;SDS011;21993;42.672;23.296;2022-09-13T02:07:04;5.90;;;4.07;;
35891;SDS011;21993;42.672;23.296;2022-09-13T02:09:35;5.33;;;4.20;;
35891;SDS011;21993;42.672;23.296;2022-09-13T02:12:08;5.40;;;4.90;;
35891;SDS011;21993;42.672;23.296;2022-09-13T02:14:39;4.20;;;3.80;;
35891;SDS011;21993;42.672;23.296;2022-09-13T02:22:08;5.47;;;4.50;;
35891;SDS011;21993;42.672;23.296;2022-09-13T02:24:56;4.47;;;4.07;;
35891;SDS011;21993;42.672;23.296;2022-09-13T02:27:27;5.13;;;4.50;;
35891;SDS011;21993;42.672;23.296;2022-09-13T02:29:57;5.00;;;4.47;;
35891;SDS011;21993;42.672;23.296;2022-09-13T02:32:47;5.07;;;4.60;;
35891;SDS011;21993;42.672;23.296;2022-09-13T02:35:24;4.93;;;4.20;;
35891;SDS011;21993;42.672;23.296;2022-09-13T02:38:00;7.97;;;4.53;;
35891;SDS011;21993;42.672;23.296;2022-09-13T02:40:31;3.73;;;3.43;;
35891;SDS011;21993;42.672;23.296;2022-09-13T02:43:05;5.50;;;4.23;;
35891;SDS011;21993;42.672;23.296;2022-09-13T02:45:51;7.07;;;4.67;;
35891;SDS011;21993;42.672;23.296;2022-09-13T02:48:31;5.43;;;4.27;;
35891;SDS011;21993;42.672;23.296;2022-09-13T02:51:23;6.17;;;4.40;;
35891;SDS011;21993;42.672;23.296;2022-09-13T02:54:20;7.10;;;4.50;;
35891;SDS011;21993;42.672;23.296;2022-09-13T03:00:02;4.40;;;4.00;;
35891;SDS011;21993;42.672;23.296;2022-09-13T03:02:32;5.03;;;4.33;;
35891;SDS011;21993;42.672;23.296;2022-09-13T03:04:58;4.97;;;4.23;;
35891;SDS011;21993;42.672;23.296;2022-09-13T03:07:25;5.47;;;4.27;;
35891;SDS011;21993;42.672;23.296;2022-09-13T03:09:54;5.00;;;3.70;;
35891;SDS011;21993;42.672;23.296;2022-09-13T03:18:02;4.77;;;3.90;;
35891;SDS011;21993;42.672;23.296;2022-09-13T03:31:59;6.27;;;4.70;;
35891;SDS011;21993;42.672;23.296;2022-09-13T03:34:32;8.30;;;4.17;;
35891;SDS011;21993;42.672;23.296;2022-09-13T03:37:26;4.33;;;3.93;;
35891;SDS011;21993;42.672;23.296;2022-09-13T03:40:04;4.27;;;3.23;;
35891;SDS011;21993;42.672;23.296;2022-09-13T03:45:47;4.33;;;3.80;;
35891;SDS011;21993;42.672;23.296;2022-09-13T03:48:15;4.07;;;3.63;;
35891;SDS011;21993;42.672;23.296;2022-09-13T03:50:44;7.40;;;4.20;;
35891;SDS011;21993;42.672;23.296;2022-09-13T03:53:11;10.70;;;4.30;;
35891;SDS011;21993;42.672;23.296;2022-09-13T03:55:42;5.50;;;4.20;;
35891;SDS011;21993;42.672;23.296;2022-09-13T03:58:10;4.63;;;3.87;;
35891;SDS011;21993;42.672;23.296;2022-09-13T04:00:37;8.23;;;4.20;;
35891;SDS011;21993;42.672;23.296;2022-09-13T04:03:04;3.87;;;3.47;;
35891;SDS011;21993;42.672;23.296;2022-09-13T04:05:30;8.23;;;5.03;;
35891;SDS011;21993;42.672;23.296;2022-09-13T04:07:55;5.07;;;4.33;;
35891;SDS011;21993;42.672;23.296;2022-09-13T04:10:21;6.03;;;4.83;;
35891;SDS011;21993;42.672;23.296;2022-09-13T04:12:48;6.33;;;4.43;;
35891;SDS011;21993;42.672;23.296;2022-09-13T04:15:13;6.17;;;4.50;;
35891;SDS011;21993;42.672;23.296;2022-09-13T04:17:40;7.17;;;4.40;;
35891;SDS011;21993;42.672;23.296;2022-09-13T04:20:05;7.03;;;4.00;;
35891;SDS011;21993;42.672;23.296;2022-09-13T04:22:31;7.27;;;4.47;;
35891;SDS011;21993;42.672;23.296;2022-09-13T04:24:57;5.90;;;4.77;;
35891;SDS011;21993;42.672;23.296;2022-09-13T04:27:23;10.47;;;4.33;;
35891;SDS011;21993;42.672;23.296;2022-09-13T04:29:49;5.27;;;4.57;;
35891;SDS011;21993;42.672;23.296;2022-09-13T04:32:15;5.10;;;4.60;;
35891;SDS011;21993;42.672;23.296;2022-09-13T04:34:40;10.27;;;4.80;;
35891;SDS011;21993;42.672;23.296;2022-09-13T04:37:06;7.20;;;4.57;;
35891;SDS011;21993;42.672;23.296;2022-09-13T04:39:31;6.17;;;4.37;;
35891;SDS011;21993;42.672;23.296;2022-09-13T04:41:56;11.27;;;4.27;;
35891;SDS011;21993;42.672;23.296;2022-09-13T04:44:23;10.90;;;4.73;;
35891;SDS011;21993;42.672;23.296;2022-09-13T04:46:49;7.47;;;4.67;;
35891;SDS011;21993;42.672;23.296;2022-09-13T04:49:15;6.43;;;4.70;;
35891;SDS011;21993;42.672;23.296;2022-09-13T04:51:42;7.30;;;3.93;;
35891;SDS011;21993;42.672;23.296;2022-09-13T04:54:08;11.00;;;4.93;;
35891;SDS011;21993;42.672;23.296;2022-09-13T04:56:35;11.30;;;4.53;;
35891;SDS011;21993;42.672;23.296;2022-09-13T04:59:01;5.97;;;4.73;;
35891;SDS011;21993;42.672;23.296;2022-09-13T05:01:26;5.00;;;4.30;;
35891;SDS011;21993;42.672;23.296;2022-09-13T05:03:52;6.10;;;4.23;;
35891;SDS011;21993;42.672;23.296;2022-09-13T05:06:17;8.53;;;4.07;;
35891;SDS011;21993;42.672;23.296;2022-09-13T05:08:43;5.67;;;4.90;;
35891;SDS011;21993;42.672;23.296;2022-09-13T05:11:13;15.07;;;6.87;;
35891;SDS011;21993;42.672;23.296;2022-09-13T05:13:38;11.63;;;6.10;;
35891;SDS011;21993;42.672;23.296;2022-09-13T05:16:04;11.00;;;6.43;;
35891;SDS011;21993;42.672;23.296;2022-09-13T05:18:32;13.50;;;6.47;;
35891;SDS011;21993;42.672;23.296;2022-09-13T05:20:59;8.40;;;5.57;;
35891;SDS011;21993;42.672;23.296;2022-09-13T05:23:26;10.23;;;4.17;;
35891;SDS011;21993;42.672;23.296;2022-09-13T05:25:57;5.53;;;4.20;;
35891;SDS011;21993;42.672;23.296;2022-09-13T05:28:27;5.07;;;3.87;;
35891;SDS011;21993;42.672;23.296;2022-09-13T05:30:58;5.30;;;3.83;;
35891;SDS011;21993;42.672;23.296;2022-09-13T05:33:29;4.90;;;3.40;;
35891;SDS011;21993;42.672;23.296;2022-09-13T05:35:56;5.27;;;3.73;;
35891;SDS011;21993;42.672;23.296;2022-09-13T05:38:21;6.50;;;4.00;;
35891;SDS011;21993;42.672;23.296;2022-09-13T05:40:47;6.73;;;3.97;;
35891;SDS011;21993;42.672;23.296;2022-09-13T05:43:18;4.10;;;3.67;;
35891;SDS011;21993;42.672;23.296;2022-09-13T05:45:43;5.07;;;3.70;;
35891;SDS011;21993;42.672;23.296;2022-09-13T05:48:09;4.33;;;3.60;;
35891;SDS011;21993;42.672;23.296;2022-09-13T05:50:37;5.17;;;3.43;;
35891;SDS011;21993;42.672;23.296;2022-09-13T05:53:03;5.13;;;3.43;;
35891;SDS011;21993;42.672;23.296;2022-09-13T05:55:29;4.00;;;3.60;;
35891;SDS011;21993;42.672;23.296;2022-09-13T05:57:55;3.97;;;3.23;;
35891;SDS011;21993;42.672;23.296;2022-09-13T06:00:20;4.03;;;3.60;;
35891;SDS011;21993;42.672;23.296;2022-09-13T06:02:46;5.77;;;3.63;;
35891;SDS011;21993;42.672;23.296;2022-09-13T06:05:11;3.57;;;3.27;;
35891;SDS011;21993;42.672;23.296;2022-09-13T06:07:40;6.23;;;3.37;;
35891;SDS011;21993;42.672;23.296;2022-09-13T06:10:07;4.87;;;3.33;;
35891;SDS011;21993;42.672;23.296;2022-09-13T06:12:33;3.13;;;2.83;;
35891;SDS011;21993;42.672;23.296;2022-09-13T06:14:58;3.30;;;3.00;;
35891;SDS011;21993;42.672;23.296;2022-09-13T06:17:24;3.13;;;2.83;;
35891;SDS011;21993;42.672;23.296;2022-09-13T06:19:50;3.70;;;3.37;;
35891;SDS011;21993;42.672;23.296;2022-09-13T06:22:15;4.93;;;3.50;;
35891;SDS011;21993;42.672;23.296;2022-09-13T06:24:41;8.80;;;3.63;;
35891;SDS011;21993;42.672;23.296;2022-09-13T06:27:06;4.37;;;3.30;;
35891;SDS011;21993;42.672;23.296;2022-09-13T06:29:32;5.17;;;3.93;;
35891;SDS011;21993;42.672;23.296;2022-09-13T06:31:57;3.90;;;3.50;;
35891;SDS011;21993;42.672;23.296;2022-09-13T06:34:22;7.53;;;3.40;;
35891;SDS011;21993;42.672;23.296;2022-09-13T06:36:48;3.40;;;3.10;;
35891;SDS011;21993;42.672;23.296;2022-09-13T06:39:13;4.83;;;3.53;;
35891;SDS011;21993;42.672;23.296;2022-09-13T06:41:42;4.70;;;3.67;;
35891;SDS011;21993;42.672;23.296;2022-09-13T06:44:07;5.10;;;3.93;;
35891;SDS011;21993;42.672;23.296;2022-09-13T06:46:33;11.70;;;5.27;;
35891;SDS011;21993;42.672;23.296;2022-09-13T06:48:59;4.00;;;3.57;;
35891;SDS011;21993;42.672;23.296;2022-09-13T06:51:27;3.90;;;3.20;;
35891;SDS011;21993;42.672;23.296;2022-09-13T06:53:56;6.80;;;4.17;;
35891;SDS011;21993;42.672;23.296;2022-09-13T06:56:26;4.57;;;3.33;;
35891;SDS011;21993;42.672;23.296;2022-09-13T06:58:55;3.97;;;3.17;;
35891;SDS011;21993;42.672;23.296;2022-09-13T07:01:43;3.83;;;3.53;;
35891;SDS011;21993;42.672;23.296;2022-09-13T07:04:09;4.83;;;4.37;;
35891;SDS011;21993;42.672;23.296;2022-09-13T07:06:37;3.37;;;3.07;;
35891;SDS011;21993;42.672;23.296;2022-09-13T07:09:05;3.60;;;3.30;;
35891;SDS011;21993;42.672;23.296;2022-09-13T07:11:32;3.77;;;3.37;;
35891;SDS011;21993;42.672;23.296;2022-09-13T07:13:59;5.97;;;3.33;;
35891;SDS011;21993;42.672;23.296;2022-09-13T07:16:26;4.17;;;3.60;;
35891;SDS011;21993;42.672;23.296;2022-09-13T07:18:57;5.23;;;4.00;;
35891;SDS011;21993;42.672;23.296;2022-09-13T07:21:24;8.87;;;4.13;;
35891;SDS011;21993;42.672;23.296;2022-09-13T07:23:51;9.93;;;7.07;;
35891;SDS011;21993;42.672;23.296;2022-09-13T07:26:17;6.53;;;4.30;;
35891;SDS011;21993;42.672;23.296;2022-09-13T07:28:45;4.83;;;3.20;;
35891;SDS011;21993;42.672;23.296;2022-09-13T07:33:40;3.47;;;2.93;;
35891;SDS011;21993;42.672;23.296;2022-09-13T07:36:07;5.77;;;2.57;;
35891;SDS011;21993;42.672;23.296;2022-09-13T07:38:37;3.60;;;2.80;;
35891;SDS011;21993;42.672;23.296;2022-09-13T07:41:04;4.33;;;3.77;;
35891;SDS011;21993;42.672;23.296;2022-09-13T07:43:32;7.00;;;3.67;;
35891;SDS011;21993;42.672;23.296;2022-09-13T07:46:01;6.13;;;3.77;;
35891;SDS011;21993;42.672;23.296;2022-09-13T07:48:28;3.97;;;3.23;;
35891;SDS011;21993;42.672;23.296;2022-09-13T07:50:56;3.27;;;3.00;;
35891;SDS011;21993;42.672;23.296;2022-09-13T07:53:26;3.10;;;2.80;;
35891;SDS011;21993;42.672;23.296;2022-09-13T07:55:51;6.60;;;3.00;;
35891;SDS011;21993;42.672;23.296;2022-09-13T07:58:17;2.77;;;2.57;;
35891;SDS011;21993;42.672;23.296;2022-09-13T08:00:43;3.00;;;2.70;;
35891;SDS011;21993;42.672;23.296;2022-09-13T08:03:09;4.10;;;3.10;;
35891;SDS011;21993;42.672;23.296;2022-09-13T08:05:38;3.40;;;2.83;;
35891;SDS011;21993;42.672;23.296;2022-09-13T08:08:05;3.37;;;2.53;;
35891;SDS011;21993;42.672;23.296;2022-09-13T08:10:31;6.23;;;2.80;;
35891;SDS011;21993;42.672;23.296;2022-09-13T08:12:58;3.33;;;3.03;;
35891;SDS011;21993;42.672;23.296;2022-09-13T08:15:23;6.07;;;3.23;;
35891;SDS011;21993;42.672;23.296;2022-09-13T08:17:49;4.50;;;2.70;;
35891;SDS011;21993;42.672;23.296;2022-09-13T08:20:14;2.60;;;2.40;;
35891;SDS011;21993;42.672;23.296;2022-09-13T08:22:40;2.90;;;2.60;;
35891;SDS011;21993;42.672;23.296;2022-09-13T08:25:05;4.90;;;3.20;;
35891;SDS011;21993;42.672;23.296;2022-09-13T08:27:31;4.00;;;2.67;;
35891;SDS011;21993;42.672;23.296;2022-09-13T08:29:57;3.60;;;2.93;;
35891;SDS011;21993;42.672;23.296;2022-09-13T08:32:22;5.37;;;3.00;;
35891;SDS011;21993;42.672;23.296;2022-09-13T08:34:47;2.87;;;2.30;;
35891;SDS011;21993;42.672;23.296;2022-09-13T08:37:13;8.23;;;2.63;;
35891;SDS011;21993;42.672;23.296;2022-09-13T08:39:38;3.07;;;2.77;;
35891;SDS011;21993;42.672;23.296;2022-09-13T08:42:15;7.47;;;4.20;;
35891;SDS011;21993;42.672;23.296;2022-09-13T08:44:46;3.30;;;2.80;;
35891;SDS011;21993;42.672;23.296;2022-09-13T08:50:44;4.87;;;3.20;;
35891;SDS011;21993;42.672;23.296;2022-09-13T08:56:08;3.77;;;2.50;;
35891;SDS011;21993;42.672;23.296;2022-09-13T09:07:10;2.30;;;2.10;;
35891;SDS011;21993;42.672;23.296;2022-09-13T09:15:47;5.93;;;2.90;;
35891;SDS011;21993;42.672;23.296;2022-09-13T09:18:34;3.47;;;3.17;;
35891;SDS011;21993;42.672;23.296;2022-09-13T09:21:04;2.83;;;2.40;;
35891;SDS011;21993;42.672;23.296;2022-09-13T09:26:17;3.87;;;2.80;;
35891;SDS011;21993;42.672;23.296;2022-09-13T09:28:50;3.67;;;2.80;;
35891;SDS011;21993;42.672;23.296;2022-09-13T09:39:05;4.37;;;2.53;;
35891;SDS011;21993;42.672;23.296;2022-09-13T09:41:35;4.33;;;2.30;;
35891;SDS011;21993;42.672;23.296;2022-09-13T09:44:19;2.50;;;2.30;;
35891;SDS011;21993;42.672;23.296;2022-09-13T09:46:56;3.77;;;2.43;;
35891;SDS011;21993;42.672;23.296;2022-09-13T09:52:24;2.87;;;2.50;;
35891;SDS011;21993;42.672;23.296;2022-09-13T09:54:57;3.30;;;2.43;;
35891;SDS011;21993;42.672;23.296;2022-09-13T09:57:48;4.97;;;2.70;;
35891;SDS011;21993;42.672;23.296;2022-09-13T10:00:14;3.90;;;2.60;;
35891;SDS011;21993;42.672;23.296;2022-09-13T10:02:44;4.07;;;3.53;;
35891;SDS011;21993;42.672;23.296;2022-09-13T10:05:11;3.90;;;3.23;;
35891;SDS011;21993;42.672;23.296;2022-09-13T10:07:37;5.90;;;2.77;;
35891;SDS011;21993;42.672;23.296;2022-09-13T10:10:06;2.70;;;2.50;;
35891;SDS011;21993;42.672;23.296;2022-09-13T10:12:48;3.50;;;3.20;;
35891;SDS011;21993;42.672;23.296;2022-09-13T10:15:17;3.83;;;2.77;;
35891;SDS011;21993;42.672;23.296;2022-09-13T10:20:39;2.73;;;2.53;;
35891;SDS011;21993;42.672;23.296;2022-09-13T10:25:39;3.73;;;2.77;;
35891;SDS011;21993;42.672;23.296;2022-09-13T10:28:13;2.60;;;2.40;;
35891;SDS011;21993;42.672;23.296;2022-09-13T10:33:22;4.00;;;3.57;;
35891;SDS011;21993;42.672;23.296;2022-09-13T10:35:59;5.20;;;2.73;;
35891;SDS011;21993;42.672;23.296;2022-09-13T10:38:32;2.77;;;2.53;;
35891;SDS011;21993;42.672;23.296;2022-09-13T10:41:02;2.90;;;2.57;;
35891;SDS011;21993;42.672;23.296;2022-09-13T10:43:30;4.37;;;2.50;;
35891;SDS011;21993;42.672;23.296;2022-09-13T10:45:57;4.10;;;2.90;;
35891;SDS011;21993;42.672;23.296;2022-09-13T10:48:25;3.83;;;2.77;;
35891;SDS011;21993;42.672;23.296;2022-09-13T10:53:31;2.87;;;2.67;;
35891;SDS011;21993;42.672;23.296;2022-09-13T10:55:57;3.43;;;2.90;;
35891;SDS011;21993;42.672;23.296;2022-09-13T10:58:22;2.80;;;2.60;;
35891;SDS011;21993;42.672;23.296;2022-09-13T11:03:46;2.87;;;2.67;;
35891;SDS011;21993;42.672;23.296;2022-09-13T11:06:41;3.50;;;2.87;;
35891;SDS011;21993;42.672;23.296;2022-09-13T11:14:46;2.90;;;2.70;;
35891;SDS011;21993;42.672;23.296;2022-09-13T11:20:27;2.90;;;2.60;;
35891;SDS011;21993;42.672;23.296;2022-09-13T11:28:33;3.30;;;2.53;;
35891;SDS011;21993;42.672;23.296;2022-09-13T11:34:15;3.73;;;2.70;;
35891;SDS011;21993;42.672;23.296;2022-09-13T11:36:54;3.40;;;2.70;;
35891;SDS011;21993;42.672;23.296;2022-09-13T11:39:31;14.90;;;3.40;;
35891;SDS011;21993;42.672;23.296;2022-09-13T11:52:49;3.67;;;2.30;;
35891;SDS011;21993;42.672;23.296;2022-09-13T11:55:27;2.53;;;2.37;;
35891;SDS011;21993;42.672;23.296;2022-09-13T11:58:11;2.70;;;2.50;;
35891;SDS011;21993;42.672;23.296;2022-09-13T12:00:44;2.70;;;2.50;;
35891;SDS011;21993;42.672;23.296;2022-09-13T12:03:16;2.70;;;2.50;;
35891;SDS011;21993;42.672;23.296;2022-09-13T12:06:24;2.90;;;2.40;;
35891;SDS011;21993;42.672;23.296;2022-09-13T12:08:43;4.87;;;2.80;;
35891;SDS011;21993;42.672;23.296;2022-09-13T12:11:14;2.70;;;2.50;;
35891;SDS011;21993;42.672;23.296;2022-09-13T12:16:19;2.20;;;2.00;;
35891;SDS011;21993;42.672;23.296;2022-09-13T12:18:52;2.60;;;2.40;;
35891;SDS011;21993;42.672;23.296;2022-09-13T12:21:23;2.70;;;2.50;;
35891;SDS011;21993;42.672;23.296;2022-09-13T12:32:02;3.00;;;2.40;;
35891;SDS011;21993;42.672;23.296;2022-09-13T12:39:59;2.47;;;2.27;;
35891;SDS011;21993;42.672;23.296;2022-09-13T12:42:35;2.50;;;2.30;;
35891;SDS011;21993;42.672;23.296;2022-09-13T12:56:47;2.20;;;2.10;;
35891;SDS011;21993;42.672;23.296;2022-09-13T13:05:00;2.73;;;2.47;;
35891;SDS011;21993;42.672;23.296;2022-09-13T13:07:29;2.67;;;2.47;;
35891;SDS011;21993;42.672;23.296;2022-09-13T13:09:58;2.50;;;2.30;;
35891;SDS011;21993;42.672;23.296;2022-09-13T13:12:37;3.83;;;2.60;;
35891;SDS011;21993;42.672;23.296;2022-09-13T13:15:05;4.27;;;2.57;;
35891;SDS011;21993;42.672;23.296;2022-09-13T13:17:49;3.27;;;2.60;;
35891;SDS011;21993;42.672;23.296;2022-09-13T13:23:30;2.80;;;2.47;;
35891;SDS011;21993;42.672;23.296;2022-09-13T13:26:06;2.77;;;2.50;;
35891;SDS011;21993;42.672;23.296;2022-09-13T13:33:58;3.50;;;2.37;;
35891;SDS011;21993;42.672;23.296;2022-09-13T13:38:54;2.60;;;2.40;;
35891;SDS011;21993;42.672;23.296;2022-09-13T13:43:58;3.90;;;2.33;;
35891;SDS011;21993;42.672;23.296;2022-09-13T13:48:50;2.90;;;2.70;;
35891;SDS011;21993;42.672;23.296;2022-09-13T13:51:20;5.33;;;3.10;;
35891;SDS011;21993;42.672;23.296;2022-09-13T13:53:54;4.27;;;3.10;;
35891;SDS011;21993;42.672;23.296;2022-09-13T13:56:30;2.80;;;2.60;;
35891;SDS011;21993;42.672;23.296;2022-09-13T13:59:08;3.20;;;2.90;;
35891;SDS011;21993;42.672;23.296;2022-09-13T14:01:43;4.73;;;3.47;;
35891;SDS011;21993;42.672;23.296;2022-09-13T14:04:59;3.87;;;3.30;;
35891;SDS011;21993;42.672;23.296;2022-09-13T14:07:12;3.70;;;3.40;;
35891;SDS011;21993;42.672;23.296;2022-09-13T14:10:36;9.10;;;3.03;;
35891;SDS011;21993;42.672;23.296;2022-09-13T14:13:13;7.20;;;3.20;;
35891;SDS011;21993;42.672;23.296;2022-09-13T14:16:18;5.10;;;3.00;;
35891;SDS011;21993;42.672;23.296;2022-09-13T14:21:42;5.00;;;3.30;;
35891;SDS011;21993;42.672;23.296;2022-09-13T14:26:43;5.70;;;3.00;;
35891;SDS011;21993;42.672;23.296;2022-09-13T14:29:10;4.20;;;3.30;;
35891;SDS011;21993;42.672;23.296;2022-09-13T14:31:43;3.30;;;3.00;;
35891;SDS011;21993;42.672;23.296;2022-09-13T14:37:00;4.90;;;3.53;;
35891;SDS011;21993;42.672;23.296;2022-09-13T14:39:28;4.10;;;3.30;;
35891;SDS011;21993;42.672;23.296;2022-09-13T14:41:59;7.90;;;3.57;;
35891;SDS011;21993;42.672;23.296;2022-09-13T14:44:25;4.13;;;3.20;;
35891;SDS011;21993;42.672;23.296;2022-09-13T14:47:00;3.20;;;2.90;;
35891;SDS011;21993;42.672;23.296;2022-09-13T14:49:40;3.70;;;3.40;;
35891;SDS011;21993;42.672;23.296;2022-09-13T14:52:27;5.73;;;3.63;;
35891;SDS011;21993;42.672;23.296;2022-09-13T14:54:56;3.40;;;3.20;;
35891;SDS011;21993;42.672;23.296;2022-09-13T14:57:29;3.77;;;2.80;;
35891;SDS011;21993;42.672;23.296;2022-09-13T15:02:36;3.30;;;3.00;;
35891;SDS011;21993;42.672;23.296;2022-09-13T15:05:10;3.60;;;2.93;;
35891;SDS011;21993;42.672;23.296;2022-09-13T15:07:39;4.60;;;3.07;;
35891;SDS011;21993;42.672;23.296;2022-09-13T15:10:07;4.63;;;3.10;;
35891;SDS011;21993;42.672;23.296;2022-09-13T15:17:59;3.57;;;3.27;;
35891;SDS011;21993;42.672;23.296;2022-09-13T15:20:59;3.73;;;3.33;;
35891;SDS011;21993;42.672;23.296;2022-09-13T15:23:28;3.37;;;3.07;;
35891;SDS011;21993;42.672;23.296;2022-09-13T15:28:30;5.20;;;3.90;;
35891;SDS011;21993;42.672;23.296;2022-09-13T15:30:58;3.73;;;3.27;;
35891;SDS011;21993;42.672;23.296;2022-09-13T15:33:29;3.40;;;3.10;;
35891;SDS011;21993;42.672;23.296;2022-09-13T15:41:38;3.60;;;3.30;;
35891;SDS011;21993;42.672;23.296;2022-09-13T15:44:05;3.77;;;3.47;;
35891;SDS011;21993;42.672;23.296;2022-09-13T15:46:54;5.43;;;3.37;;
35891;SDS011;21993;42.672;23.296;2022-09-13T15:49:20;3.30;;;3.10;;
35891;SDS011;21993;42.672;23.296;2022-09-13T15:51:55;5.47;;;3.17;;
35891;SDS011;21993;42.672;23.296;2022-09-13T15:54:22;3.57;;;3.27;;
35891;SDS011;21993;42.672;23.296;2022-09-13T15:56:51;4.80;;;3.13;;
35891;SDS011;21993;42.672;23.296;2022-09-13T15:59:18;4.30;;;3.90;;
35891;SDS011;21993;42.672;23.296;2022-09-13T16:01:45;3.77;;;3.47;;
35891;SDS011;21993;42.672;23.296;2022-09-13T16:04:12;3.57;;;3.27;;
35891;SDS011;21993;42.672;23.296;2022-09-13T16:06:38;4.23;;;3.83;;
35891;SDS011;21993;42.672;23.296;2022-09-13T16:09:17;4.20;;;3.80;;
35891;SDS011;21993;42.672;23.296;2022-09-13T16:11:44;3.77;;;3.47;;
35891;SDS011;21993;42.672;23.296;2022-09-13T16:14:11;6.00;;;4.03;;
35891;SDS011;21993;42.672;23.296;2022-09-13T16:16:37;4.03;;;3.63;;
35891;SDS011;21993;42.672;23.296;2022-09-13T16:19:02;3.80;;;3.50;;
35891;SDS011;21993;42.672;23.296;2022-09-13T16:21:28;3.73;;;3.43;;
35891;SDS011;21993;42.672;23.296;2022-09-13T16:23:54;3.90;;;3.50;;
35891;SDS011;21993;42.672;23.296;2022-09-13T16:26:20;6.10;;;3.73;;
35891;SDS011;21993;42.672;23.296;2022-09-13T16:28:45;5.80;;;3.53;;
35891;SDS011;21993;42.672;23.296;2022-09-13T16:31:11;5.77;;;3.90;;
35891;SDS011;21993;42.672;23.296;2022-09-13T16:33:39;4.90;;;4.00;;
35891;SDS011;21993;42.672;23.296;2022-09-13T16:36:04;4.47;;;4.07;;
35891;SDS011;21993;42.672;23.296;2022-09-13T16:38:30;4.70;;;4.30;;
35891;SDS011;21993;42.672;23.296;2022-09-13T16:40:55;5.07;;;4.13;;
35891;SDS011;21993;42.672;23.296;2022-09-13T16:43:21;5.23;;;4.20;;
35891;SDS011;21993;42.672;23.296;2022-09-13T16:45:46;6.63;;;4.23;;
35891;SDS011;21993;42.672;23.296;2022-09-13T16:48:14;5.43;;;4.07;;
35891;SDS011;21993;42.672;23.296;2022-09-13T16:50:40;4.67;;;4.03;;
35891;SDS011;21993;42.672;23.296;2022-09-13T16:53:05;5.63;;;3.97;;
35891;SDS011;21993;42.672;23.296;2022-09-13T16:55:31;6.03;;;4.23;;
35891;SDS011;21993;42.672;23.296;2022-09-13T16:57:56;5.70;;;4.53;;
35891;SDS011;21993;42.672;23.296;2022-09-13T17:00:22;4.87;;;4.37;;
35891;SDS011;21993;42.672;23.296;2022-09-13T17:02:52;6.00;;;4.70;;
35891;SDS011;21993;42.672;23.296;2022-09-13T17:05:19;5.87;;;4.47;;
35891;SDS011;21993;42.672;23.296;2022-09-13T17:07:44;6.17;;;4.97;;
35891;SDS011;21993;42.672;23.296;2022-09-13T17:10:10;6.20;;;4.47;;
35891;SDS011;21993;42.672;23.296;2022-09-13T17:12:36;7.37;;;4.30;;
35891;SDS011;21993;42.672;23.296;2022-09-13T17:15:03;8.30;;;5.23;;
35891;SDS011;21993;42.672;23.296;2022-09-13T17:17:29;6.67;;;4.30;;
35891;SDS011;21993;42.672;23.296;2022-09-13T17:20:00;4.83;;;4.43;;
35891;SDS011;21993;42.672;23.296;2022-09-13T17:22:31;5.00;;;4.50;;
35891;SDS011;21993;42.672;23.296;2022-09-13T17:27:52;5.10;;;4.50;;
35891;SDS011;21993;42.672;23.296;2022-09-13T17:30:18;6.57;;;4.63;;
35891;SDS011;21993;42.672;23.296;2022-09-13T17:32:43;5.80;;;4.73;;
35891;SDS011;21993;42.672;23.296;2022-09-13T17:35:08;4.77;;;4.23;;
35891;SDS011;21993;42.672;23.296;2022-09-13T17:37:36;6.37;;;5.47;;
35891;SDS011;21993;42.672;23.296;2022-09-13T17:40:02;6.43;;;4.87;;
35891;SDS011;21993;42.672;23.296;2022-09-13T17:42:27;9.23;;;4.73;;
35891;SDS011;21993;42.672;23.296;2022-09-13T17:44:53;5.07;;;4.30;;
35891;SDS011;21993;42.672;23.296;2022-09-13T17:47:18;5.83;;;4.27;;
35891;SDS011;21993;42.672;23.296;2022-09-13T17:49:44;4.83;;;4.30;;
35891;SDS011;21993;42.672;23.296;2022-09-13T17:52:11;5.03;;;4.57;;
35891;SDS011;21993;42.672;23.296;2022-09-13T17:54:36;4.67;;;4.10;;
35891;SDS011;21993;42.672;23.296;2022-09-13T17:57:02;6.17;;;4.70;;
35891;SDS011;21993;42.672;23.296;2022-09-13T17:59:27;4.67;;;4.27;;
35891;SDS011;21993;42.672;23.296;2022-09-13T18:01:53;5.30;;;4.57;;
35891;SDS011;21993;42.672;23.296;2022-09-13T18:04:21;9.57;;;4.70;;
35891;SDS011;21993;42.672;23.296;2022-09-13T18:06:49;5.03;;;4.53;;
35891;SDS011;21993;42.672;23.296;2022-09-13T18:09:15;6.63;;;4.97;;
35891;SDS011;21993;42.672;23.296;2022-09-13T18:11:41;6.07;;;4.83;;
35891;SDS011;21993;42.672;23.296;2022-09-13T18:14:11;4.93;;;4.43;;
35891;SDS011;21993;42.672;23.296;2022-09-13T18:16:39;6.10;;;4.97;;
35891;SDS011;21993;42.672;23.296;2022-09-13T18:19:06;6.00;;;4.87;;